createdAt,value
2022-08-19T00:01:30.285Z,63.63
2022-08-19T00:03:32.679Z,64.09
2022-08-19T00:05:34.785Z,62.61
2022-08-19T00:07:36.874Z,63.66
2022-08-19T00:09:38.909Z,62.72
2022-08-19T00:11:41.575Z,62.66
2022-08-19T00:13:43.574Z,62.35
2022-08-19T00:15:45.791Z,62.63
2022-08-19T00:17:48.402Z,63.56
2022-08-19T00:19:50.330Z,64.85
2022-08-19T00:21:52.818Z,62.78
2022-08-19T00:23:55.881Z,64.28
2022-08-19T00:25:57.948Z,63.04
2022-08-19T00:28:00.379Z,63.63
2022-08-19T00:30:04.428Z,64.57
2022-08-19T00:32:07.680Z,64.06
2022-08-19T00:34:13.443Z,64.65
2022-08-19T00:36:15.368Z,66.56
2022-08-19T00:38:17.362Z,63.89
2022-08-19T00:40:38.776Z,64.90
2022-08-19T00:42:40.828Z,65.22
2022-08-19T00:44:44.159Z,66.29
2022-08-19T00:46:57.677Z,64.51
2022-08-19T00:49:01.837Z,64.94
2022-08-19T00:51:05.055Z,64.82
2022-08-19T00:53:07.127Z,65.02
2022-08-19T00:55:12.845Z,64.69
2022-08-19T00:57:17.967Z,66.36
2022-08-19T01:00:00.476Z,65.14
2022-08-19T01:01:43.541Z,66.40
2022-08-19T01:03:57.893Z,66.15
2022-08-19T01:06:01.124Z,65.50
2022-08-19T01:08:04.439Z,67.99
2022-08-19T01:10:08.113Z,68.18
2022-08-19T01:12:10.151Z,65.54
2022-08-19T01:14:12.305Z,66.55
2022-08-19T01:16:14.381Z,67.22
2022-08-19T01:18:17.869Z,67.87
2022-08-19T01:20:23.104Z,67.30
2022-08-19T01:22:31.450Z,67.39
2022-08-19T01:24:35.082Z,67.25
2022-08-19T01:26:47.702Z,68.47
2022-08-19T01:28:56.150Z,67.28
2022-08-19T01:31:01.691Z,66.93
2022-08-19T01:33:10.129Z,67.18
2022-08-19T01:35:12.936Z,67.33
2022-08-19T01:37:15.183Z,68.14
2022-08-19T01:39:27.188Z,67.58
2022-08-19T01:41:29.196Z,68.09
2022-08-19T01:43:31.204Z,68.62
2022-08-19T01:45:34.406Z,69.87
2022-08-19T01:47:37.454Z,69.41
2022-08-19T01:49:39.501Z,68.38
2022-08-19T01:51:41.520Z,68.61
2022-08-19T01:53:43.618Z,68.46
2022-08-19T01:55:46.730Z,68.37
2022-08-19T01:57:55.044Z,69.15
2022-08-19T01:59:57.803Z,68.38
2022-08-19T02:01:59.803Z,68.78
2022-08-19T02:04:01.895Z,68.23
2022-08-19T02:06:04.257Z,68.75
2022-08-19T02:08:06.369Z,69.34
2022-08-19T02:10:12.472Z,69.97
2022-08-19T02:12:15.649Z,70.15
2022-08-19T02:14:17.633Z,69.36
2022-08-19T02:16:20.020Z,69.33
2022-08-19T02:18:22.030Z,69.17
2022-08-19T02:20:30.002Z,69.47
2022-08-19T02:22:32.055Z,69.66
2022-08-19T02:24:34.042Z,70.40
2022-08-19T02:26:36.174Z,70.98
2022-08-19T02:28:38.164Z,71.27
2022-08-19T02:30:41.640Z,70.66
2022-08-19T02:32:44.258Z,71.01
2022-08-19T02:34:48.103Z,70.07
2022-08-19T02:36:51.766Z,70.51
2022-08-19T02:38:55.642Z,70.80
2022-08-19T02:41:03.028Z,71.52
2022-08-19T02:43:08.401Z,70.44
2022-08-19T02:45:10.908Z,70.83
2022-08-19T02:47:14.340Z,71.02
2022-08-19T02:49:17.543Z,70.95
2022-08-19T02:51:26.104Z,72.23
2022-08-19T02:53:29.134Z,70.75
2022-08-19T02:55:31.129Z,71.92
2022-08-19T02:57:48.458Z,71.51
2022-08-19T02:59:50.872Z,71.37
2022-08-19T03:01:52.955Z,72.34
2022-08-19T03:03:56.456Z,72.05
2022-08-19T03:06:14.207Z,73.22
2022-08-19T03:08:16.449Z,72.84
2022-08-19T03:10:18.533Z,71.88
2022-08-19T03:12:20.528Z,72.90
2022-08-19T03:14:22.535Z,72.55
2022-08-19T03:16:26.141Z,72.55
2022-08-19T03:18:28.174Z,71.86
2022-08-19T03:20:30.174Z,72.48
2022-08-19T03:22:32.150Z,72.16
2022-08-19T03:24:34.152Z,73.35
2022-08-19T03:26:40.034Z,73.15
2022-08-19T03:28:50.888Z,74.50
2022-08-19T03:31:03.329Z,75.04
2022-08-19T03:33:06.100Z,74.19
2022-08-19T03:35:10.473Z,74.69
2022-08-19T03:37:15.738Z,73.51
2022-08-19T03:39:17.892Z,73.65
2022-08-19T03:41:25.327Z,75.30
2022-08-19T03:43:38.666Z,74.03
2022-08-19T03:45:40.684Z,73.89
2022-08-19T03:47:42.666Z,75.25
2022-08-19T03:49:44.894Z,73.88
2022-08-19T03:51:47.786Z,73.57
2022-08-19T03:53:49.887Z,73.28
2022-08-19T03:55:51.878Z,74.71
2022-08-19T03:57:58.612Z,74.55
2022-08-19T04:00:12.531Z,74.06
2022-08-19T04:02:15.841Z,73.75
2022-08-19T04:04:17.877Z,74.39
2022-08-19T04:06:31.372Z,75.15
2022-08-19T04:08:33.361Z,75.13
2022-08-19T04:10:39.231Z,74.67
2022-08-19T04:12:41.479Z,73.81
2022-08-19T04:14:43.486Z,74.31
2022-08-19T04:16:45.749Z,74.32
2022-08-19T04:18:48.323Z,74.57
2022-08-19T04:20:50.812Z,74.41
2022-08-19T04:22:52.965Z,74.98
2022-08-19T04:24:55.158Z,75.14
2022-08-19T04:27:03.722Z,75.88
2022-08-19T04:29:16.897Z,75.35
2022-08-19T04:31:27.083Z,75.26
2022-08-19T04:33:29.697Z,75.31
2022-08-19T04:35:38.915Z,74.91
2022-08-19T04:37:40.934Z,74.35
2022-08-19T04:40:02.195Z,74.44
2022-08-19T04:42:30.745Z,74.15
2022-08-19T04:44:35.558Z,73.79
2022-08-19T04:46:39.437Z,73.59
2022-08-19T04:48:54.515Z,73.68
2022-08-19T04:51:00.614Z,74.36
2022-08-19T04:53:02.651Z,73.30
2022-08-19T04:55:07.075Z,73.49
2022-08-19T04:57:10.720Z,73.45
2022-08-19T04:59:15.521Z,73.72
2022-08-19T05:01:23.645Z,74.68
2022-08-19T05:03:30.035Z,73.45
2022-08-19T05:05:44.597Z,73.88
2022-08-19T05:07:47.469Z,74.32
2022-08-19T05:09:57.955Z,73.35
2022-08-19T05:12:01.372Z,73.68
2022-08-19T05:14:03.426Z,73.27
2022-08-19T05:16:05.538Z,73.48
2022-08-19T05:18:26.142Z,73.16
2022-08-19T05:20:46.677Z,73.18
2022-08-19T05:22:49.009Z,73.64
2022-08-19T05:25:11.254Z,73.60
2022-08-19T05:27:13.209Z,74.35
2022-08-19T05:29:17.656Z,73.45
2022-08-19T05:31:20.152Z,73.47
2022-08-19T05:33:22.609Z,74.10
2022-08-19T05:35:25.118Z,73.20
2022-08-19T05:37:28.541Z,73.29
2022-08-19T05:39:31.933Z,72.91
2022-08-19T05:41:34.224Z,73.24
2022-08-19T05:43:38.264Z,73.34
2022-08-19T05:45:40.780Z,73.60
2022-08-19T05:47:42.760Z,72.79
2022-08-19T05:49:44.788Z,72.46
2022-08-19T05:51:46.798Z,73.06
2022-08-19T05:53:48.784Z,72.29
2022-08-19T05:55:50.822Z,72.18
2022-08-19T05:57:52.795Z,71.75
2022-08-19T05:59:58.177Z,71.99
2022-08-19T06:02:01.799Z,72.06
2022-08-19T06:04:04.332Z,71.71
2022-08-19T06:06:08.427Z,71.35
2022-08-19T06:08:10.493Z,71.17
2022-08-19T06:10:12.684Z,71.37
2022-08-19T06:12:14.688Z,71.08
2022-08-19T06:14:19.583Z,71.24
2022-08-19T06:16:29.933Z,70.78
2022-08-19T06:18:31.984Z,70.58
2022-08-19T06:20:54.460Z,70.57
2022-08-19T06:22:56.109Z,70.34
2022-08-19T06:24:58.527Z,70.22
2022-08-19T06:27:01.416Z,70.06
2022-08-19T06:29:08.358Z,69.98
2022-08-19T06:31:10.881Z,69.53
2022-08-19T06:33:12.868Z,69.26
2022-08-19T06:35:15.614Z,69.03
2022-08-19T06:37:17.660Z,68.68
2022-08-19T06:39:25.355Z,68.34
2022-08-19T06:41:27.604Z,68.30
2022-08-19T06:43:29.633Z,68.27
2022-08-19T06:45:35.456Z,68.04
2022-08-19T06:47:37.823Z,67.83
2022-08-19T06:49:40.155Z,67.21
2022-08-19T06:51:44.431Z,67.39
2022-08-19T06:53:48.346Z,67.26
2022-08-19T06:56:03.222Z,66.82
2022-08-19T06:58:05.775Z,66.61
2022-08-19T07:00:12.924Z,65.92
2022-08-19T07:02:15.273Z,65.71
2022-08-19T07:04:23.596Z,65.27
2022-08-19T07:06:43.760Z,65.14
2022-08-19T07:08:47.663Z,64.25
2022-08-19T07:10:50.220Z,64.44
2022-08-19T07:12:52.818Z,63.81
2022-08-19T07:14:55.000Z,64.57
2022-08-19T07:16:57.704Z,63.44
2022-08-19T07:19:00.390Z,63.75
2022-08-19T07:21:20.775Z,63.01
2022-08-19T07:23:25.142Z,62.63
2022-08-19T07:25:32.108Z,62.47
2022-08-19T07:27:35.558Z,62.05
2022-08-19T07:29:37.947Z,61.94
2022-08-19T07:31:40.152Z,61.67
2022-08-19T07:33:46.448Z,61.78
2022-08-19T07:35:50.849Z,60.94
2022-08-19T07:37:53.950Z,61.70
2022-08-19T07:39:56.411Z,61.40
2022-08-19T07:41:59.629Z,60.80
2022-08-19T07:44:04.700Z,60.31
2022-08-19T07:46:07.111Z,60.38
2022-08-19T07:48:09.123Z,59.56
2022-08-19T07:50:12.577Z,60.46
2022-08-19T07:52:14.583Z,60.02
2022-08-19T07:54:16.931Z,59.79
2022-08-19T07:56:20.009Z,59.07
2022-08-19T07:58:22.798Z,58.67
2022-08-19T08:00:24.959Z,58.71
2022-08-19T08:02:27.090Z,58.52
2022-08-19T08:04:48.607Z,57.84
2022-08-19T08:07:09.322Z,57.69
2022-08-19T08:11:28.574Z,57.95
2022-08-19T08:13:31.674Z,57.58
2022-08-19T08:15:35.690Z,56.88
2022-08-19T08:17:49.624Z,56.19
2022-08-19T08:19:53.846Z,56.80
2022-08-19T08:21:58.198Z,56.26
2022-08-19T08:26:07.140Z,55.35
2022-08-19T08:28:11.255Z,54.93
2022-08-19T08:30:25.125Z,53.55
2022-08-19T08:32:27.952Z,54.57
2022-08-19T08:34:29.974Z,54.17
2022-08-19T08:36:34.439Z,53.35
2022-08-19T08:38:41.498Z,52.06
2022-08-19T08:40:50.904Z,50.67
2022-08-19T08:43:11.544Z,50.21
2022-08-19T08:45:16.933Z,50.47
2022-08-19T08:47:20.577Z,48.86
2022-08-19T08:50:01.467Z,48.67
2022-08-19T08:52:07.522Z,49.06
2022-08-19T08:54:12.395Z,48.40
2022-08-19T08:56:16.916Z,48.09
2022-08-19T08:58:43.218Z,46.52
2022-08-19T09:00:48.763Z,46.77
2022-08-19T09:02:51.714Z,46.93
2022-08-19T09:04:55.320Z,46.23
2022-08-19T09:07:39.990Z,45.39
2022-08-19T09:09:45.149Z,45.04
2022-08-19T09:11:59.145Z,44.84
2022-08-19T09:14:49.331Z,43.96
2022-08-19T09:16:45.392Z,44.21
2022-08-19T09:18:54.816Z,43.12
2022-08-19T09:20:57.821Z,43.82
2022-08-19T09:22:59.952Z,44.07
2022-08-19T09:25:02.034Z,43.26
2022-08-19T09:27:18.191Z,42.75
2022-08-19T09:29:22.594Z,42.83
2022-08-19T09:31:27.226Z,42.88
2022-08-19T09:33:30.149Z,42.92
2022-08-19T09:35:32.283Z,42.69
2022-08-19T09:37:57.317Z,42.81
2022-08-19T09:40:00.345Z,43.31
2022-08-19T09:42:05.836Z,43.18
2022-08-19T09:44:18.927Z,43.40
2022-08-19T09:46:23.986Z,43.08
2022-08-19T09:48:26.091Z,42.54
2022-08-19T09:50:28.106Z,42.20
2022-08-19T09:52:32.625Z,41.85
2022-08-19T09:54:35.115Z,41.71
2022-08-19T09:56:39.126Z,41.73
2022-08-19T09:58:44.431Z,40.60
2022-08-19T10:00:50.922Z,40.78
2022-08-19T10:02:53.709Z,39.29
2022-08-19T10:05:14.520Z,38.36
2022-08-19T10:07:28.863Z,39.09
2022-08-19T10:09:38.581Z,38.88
2022-08-19T10:11:48.795Z,37.60
2022-08-19T10:13:53.213Z,38.74
2022-08-19T10:16:03.505Z,37.07
2022-08-19T10:18:05.802Z,37.31
2022-08-19T10:20:08.289Z,37.07
2022-08-19T10:22:15.357Z,36.09
2022-08-19T10:24:17.359Z,36.54
2022-08-19T10:26:30.076Z,35.44
2022-08-19T10:28:32.073Z,35.57
2022-08-19T10:30:36.480Z,35.72
2022-08-19T10:32:38.680Z,36.12
2022-08-19T10:34:49.320Z,36.41
2022-08-19T10:36:56.154Z,36.11
2022-08-19T10:39:00.218Z,36.42
2022-08-19T10:41:17.392Z,36.09
2022-08-19T10:43:19.386Z,36.77
2022-08-19T10:45:26.108Z,36.39
2022-08-19T10:47:31.653Z,36.07
2022-08-19T10:49:53.856Z,36.59
2022-08-19T10:52:18.574Z,36.10
2022-08-19T10:54:31.429Z,36.04
2022-08-19T10:56:53.822Z,36.18
2022-08-19T10:58:57.584Z,36.13
2022-08-19T11:00:59.946Z,35.36
2022-08-19T11:03:01.974Z,35.61
2022-08-19T11:05:12.803Z,34.54
2022-08-19T11:07:15.772Z,34.90
2022-08-19T11:09:20.935Z,34.02
2022-08-19T11:11:23.147Z,34.11
2022-08-19T11:13:25.690Z,34.15
2022-08-19T11:15:29.729Z,33.12
2022-08-19T11:17:32.688Z,33.36
2022-08-19T11:19:35.065Z,31.94
2022-08-19T11:21:42.545Z,31.08
2022-08-19T11:23:44.713Z,31.37
2022-08-19T11:25:47.127Z,31.57
2022-08-19T11:27:52.054Z,31.37
2022-08-19T11:29:54.259Z,31.15
2022-08-19T11:31:56.639Z,30.35
2022-08-19T11:34:00.797Z,29.15
2022-08-19T11:36:03.582Z,29.96
2022-08-19T11:38:09.451Z,29.74
2022-08-19T11:40:12.771Z,29.85
2022-08-19T11:42:33.293Z,28.95
2022-08-19T11:44:36.895Z,28.29
2022-08-19T11:46:39.065Z,27.96
2022-08-19T11:48:41.348Z,28.38
2022-08-19T11:50:44.549Z,27.20
2022-08-19T11:52:46.679Z,28.05
2022-08-19T11:54:48.702Z,28.11
2022-08-19T11:56:50.732Z,27.80
2022-08-19T11:58:53.384Z,26.35
2022-08-19T12:00:55.393Z,26.78
2022-08-19T12:02:57.401Z,27.37
2022-08-19T12:04:59.645Z,27.23
2022-08-19T12:07:02.858Z,27.37
2022-08-19T12:09:07.043Z,26.60
2022-08-19T12:11:09.070Z,27.26
2022-08-19T12:13:11.365Z,28.20
2022-08-19T12:15:13.798Z,28.35
2022-08-19T12:17:16.283Z,28.00
2022-08-19T12:19:22.198Z,26.98
2022-08-19T12:21:29.263Z,27.52
2022-08-19T12:23:31.730Z,28.02
2022-08-19T12:25:33.958Z,29.07
2022-08-19T12:27:40.841Z,29.36
2022-08-19T12:29:43.820Z,28.61
2022-08-19T12:31:45.817Z,29.80
2022-08-19T12:33:49.148Z,29.80
2022-08-19T12:35:51.308Z,29.87
2022-08-19T12:37:56.908Z,30.22
2022-08-19T12:39:59.959Z,30.52
2022-08-19T12:42:01.972Z,30.14
2022-08-19T12:44:04.167Z,30.78
2022-08-19T12:46:11.486Z,30.24
2022-08-19T12:48:33.759Z,29.92
2022-08-19T12:50:35.922Z,28.91
2022-08-19T12:52:38.220Z,28.64
2022-08-19T12:54:40.237Z,28.93
2022-08-19T12:56:43.584Z,28.99
2022-08-19T12:58:50.349Z,28.90
2022-08-19T13:00:55.159Z,29.17
2022-08-19T13:02:57.961Z,28.88
2022-08-19T13:04:59.975Z,27.61
2022-08-19T13:07:02.095Z,28.07
2022-08-19T13:09:05.373Z,26.88
2022-08-19T13:11:15.793Z,27.28
2022-08-19T13:13:17.865Z,26.27
2022-08-19T13:15:24.274Z,26.38
2022-08-19T13:17:26.541Z,26.47
2022-08-19T13:19:29.531Z,26.74
2022-08-19T13:21:31.878Z,26.83
2022-08-19T13:23:35.056Z,25.82
2022-08-19T13:25:37.284Z,24.98
2022-08-19T13:27:39.519Z,24.98
2022-08-19T13:30:03.265Z,24.89
2022-08-19T13:32:24.041Z,24.85
2022-08-19T13:34:36.579Z,25.01
2022-08-19T13:36:38.844Z,24.75
2022-08-19T13:38:41.114Z,24.13
2022-08-19T13:40:43.207Z,24.67
2022-08-19T13:42:47.493Z,24.59
2022-08-19T13:44:49.499Z,24.28
2022-08-19T13:46:54.195Z,23.89
2022-08-19T13:48:57.254Z,24.17
2022-08-19T13:50:59.682Z,24.28
2022-08-19T13:53:02.297Z,24.12
2022-08-19T13:55:05.483Z,23.62
2022-08-19T13:57:07.465Z,24.19
2022-08-19T13:59:09.631Z,24.02
2022-08-19T14:01:11.886Z,24.01
2022-08-19T14:03:14.283Z,24.80
2022-08-19T14:05:16.680Z,25.19
2022-08-19T14:07:18.708Z,25.07
2022-08-19T14:09:20.722Z,25.81
2022-08-19T14:11:23.991Z,25.86
2022-08-19T14:13:26.057Z,25.21
2022-08-19T14:15:28.507Z,25.55
2022-08-19T14:17:30.754Z,24.94
2022-08-19T14:19:32.997Z,25.03
2022-08-19T14:21:41.381Z,24.78
2022-08-19T14:23:43.727Z,24.87
2022-08-19T14:25:45.832Z,24.63
2022-08-19T14:27:48.165Z,24.29
2022-08-19T14:29:50.292Z,23.97
2022-08-19T14:31:52.311Z,23.88
2022-08-19T14:33:54.530Z,23.28
2022-08-19T14:35:59.725Z,23.14
2022-08-19T14:38:04.366Z,23.16
2022-08-19T14:40:07.297Z,23.34
2022-08-19T14:42:11.383Z,23.27
2022-08-19T14:44:13.668Z,23.48
2022-08-19T14:46:17.137Z,23.67
2022-08-19T14:48:20.375Z,23.67
2022-08-19T14:50:22.441Z,23.63
2022-08-19T14:52:24.538Z,23.52
2022-08-19T14:54:26.571Z,24.10
2022-08-19T14:56:32.546Z,24.47
2022-08-19T14:58:37.394Z,24.48
2022-08-19T15:00:41.014Z,24.72
2022-08-19T15:02:45.204Z,24.53
2022-08-19T15:04:47.501Z,24.68
2022-08-19T15:07:00.554Z,25.62
2022-08-19T15:09:04.600Z,26.26
2022-08-19T15:11:17.985Z,26.65
2022-08-19T15:13:20.007Z,27.34
2022-08-19T15:15:23.661Z,27.08
2022-08-19T15:17:45.008Z,27.68
2022-08-19T15:19:47.705Z,27.58
2022-08-19T15:21:50.634Z,27.68
2022-08-19T15:23:52.558Z,28.48
2022-08-19T15:25:55.872Z,28.42
2022-08-19T15:27:58.742Z,28.63
2022-08-19T15:30:01.399Z,29.04
2022-08-19T15:32:03.956Z,28.77
2022-08-19T15:34:06.877Z,28.94
2022-08-19T15:36:08.969Z,29.33
2022-08-19T15:38:13.982Z,29.89
2022-08-19T15:40:16.217Z,29.61
2022-08-19T15:42:29.627Z,29.59
2022-08-19T15:44:32.404Z,30.17
2022-08-19T15:46:34.825Z,30.32
2022-08-19T15:48:38.232Z,30.06
2022-08-19T15:50:40.353Z,30.22
2022-08-19T15:52:56.561Z,30.67
2022-08-19T15:54:58.771Z,30.34
2022-08-19T15:57:19.172Z,30.41
2022-08-19T15:59:44.430Z,30.38
2022-08-19T16:02:10.402Z,30.39
2022-08-19T16:04:33.691Z,29.81
2022-08-19T16:06:35.955Z,29.89
2022-08-19T16:08:48.869Z,29.99
2022-08-19T16:10:51.417Z,30.57
2022-08-19T16:12:53.798Z,30.05
2022-08-19T16:14:56.838Z,30.13
2022-08-19T16:16:58.828Z,30.59
2022-08-19T16:19:06.304Z,30.39
2022-08-19T16:21:14.152Z,30.35
2022-08-19T16:23:16.505Z,30.67
2022-08-19T16:25:18.510Z,30.24
2022-08-19T16:27:22.514Z,30.64
2022-08-19T16:29:33.789Z,30.57
2022-08-19T16:31:43.604Z,30.32
2022-08-19T16:33:45.734Z,30.82
2022-08-19T16:35:47.752Z,31.01
2022-08-19T16:38:01.414Z,30.63
2022-08-19T16:40:04.751Z,30.97
2022-08-19T16:42:08.118Z,31.13
2022-08-19T16:44:11.873Z,30.91
2022-08-19T16:46:17.837Z,31.34
2022-08-19T16:48:26.053Z,31.26
2022-08-19T16:50:47.884Z,31.15
2022-08-19T16:52:50.080Z,30.96
2022-08-19T16:54:52.719Z,30.98
2022-08-19T16:56:56.115Z,31.61
2022-08-19T16:58:59.864Z,31.28
2022-08-19T17:01:06.627Z,31.24
2022-08-19T17:03:14.670Z,31.57
2022-08-19T17:05:17.029Z,31.68
2022-08-19T17:07:20.064Z,31.73
2022-08-19T17:09:25.997Z,31.68
2022-08-19T17:11:29.633Z,31.72
2022-08-19T17:13:31.652Z,32.06
2022-08-19T17:15:33.768Z,31.97
2022-08-19T17:17:37.385Z,32.02
2022-08-19T17:19:44.622Z,32.16
2022-08-19T17:21:46.700Z,32.11
2022-08-19T17:23:49.077Z,32.08
2022-08-19T17:25:51.192Z,32.04
2022-08-19T17:27:53.413Z,32.01
2022-08-19T17:29:55.594Z,32.24
2022-08-19T17:31:58.921Z,32.16
2022-08-19T17:34:00.905Z,32.97
2022-08-19T17:36:06.933Z,32.47
2022-08-19T17:38:09.234Z,32.65
2022-08-19T17:40:12.549Z,32.52
2022-08-19T17:42:14.571Z,33.14
2022-08-19T17:44:17.452Z,32.87
2022-08-19T17:46:19.653Z,33.20
2022-08-19T17:48:22.160Z,34.26
2022-08-19T17:50:24.201Z,34.27
2022-08-19T17:52:26.393Z,33.66
2022-08-19T17:54:33.401Z,34.27
2022-08-19T17:56:35.976Z,34.22
2022-08-19T17:58:41.548Z,34.30
2022-08-19T18:00:53.260Z,34.63
2022-08-19T18:03:00.449Z,35.60
2022-08-19T18:05:04.431Z,35.03
2022-08-19T18:07:06.610Z,35.03
2022-08-19T18:09:08.745Z,36.00
2022-08-19T18:11:10.792Z,35.59
2022-08-19T18:13:17.713Z,35.45
2022-08-19T18:15:20.298Z,35.46
2022-08-19T18:17:24.434Z,37.19
2022-08-19T18:19:26.894Z,36.22
2022-08-19T18:21:42.911Z,36.89
2022-08-19T18:23:46.074Z,36.52
2022-08-19T18:25:48.192Z,36.86
2022-08-19T18:27:57.730Z,37.41
2022-08-19T18:30:00.264Z,37.43
2022-08-19T18:32:02.381Z,37.45
2022-08-19T18:34:05.157Z,38.19
2022-08-19T18:36:08.337Z,37.78
2022-08-19T18:38:28.980Z,38.45
2022-08-19T18:40:49.889Z,38.66
2022-08-19T18:43:10.615Z,38.72
2022-08-19T18:45:31.419Z,38.94
2022-08-19T18:47:52.219Z,40.13
2022-08-19T18:49:54.263Z,40.65
2022-08-19T18:51:56.723Z,40.34
2022-08-19T18:53:59.663Z,41.57
2022-08-19T18:56:01.765Z,41.31
2022-08-19T18:58:04.059Z,42.49
2022-08-19T19:00:07.686Z,42.85
2022-08-19T19:02:10.173Z,42.28
2022-08-19T19:04:12.089Z,43.29
2022-08-19T19:06:16.319Z,42.88
2022-08-19T19:08:18.693Z,42.38
2022-08-19T19:10:20.601Z,43.92
2022-08-19T19:12:28.655Z,42.68
2022-08-19T19:14:50.461Z,43.20
2022-08-19T19:16:52.680Z,42.83
2022-08-19T19:18:54.672Z,43.12
2022-08-19T19:20:56.887Z,44.20
2022-08-19T19:22:58.930Z,43.92
2022-08-19T19:25:02.196Z,43.71
2022-08-19T19:27:07.076Z,43.57
2022-08-19T19:29:09.462Z,43.24
2022-08-19T19:31:29.456Z,44.64
2022-08-19T19:33:31.464Z,43.41
2022-08-19T19:35:33.741Z,44.61
2022-08-19T19:37:35.791Z,44.07
2022-08-19T19:39:46.292Z,43.95
2022-08-19T19:41:49.440Z,44.14
2022-08-19T19:44:23.255Z,44.76
2022-08-19T19:46:18.140Z,44.17
2022-08-19T19:48:20.131Z,44.06
2022-08-19T19:50:22.429Z,44.48
2022-08-19T19:52:26.725Z,45.05
2022-08-19T19:54:28.744Z,44.77
2022-08-19T19:56:30.753Z,45.16
2022-08-19T19:58:35.722Z,45.19
2022-08-19T20:00:37.767Z,45.51
2022-08-19T20:02:39.846Z,45.38
2022-08-19T20:04:41.840Z,45.34
2022-08-19T20:06:45.129Z,45.75
2022-08-19T20:09:05.861Z,45.91
2022-08-19T20:11:07.866Z,45.56
2022-08-19T20:13:10.582Z,46.34
2022-08-19T20:15:13.067Z,46.18
2022-08-19T20:17:16.066Z,46.88
2022-08-19T20:19:20.838Z,47.48
2022-08-19T20:21:24.302Z,47.52
2022-08-19T20:23:26.591Z,46.56
2022-08-19T20:25:28.648Z,47.71
2022-08-19T20:27:33.272Z,47.63
2022-08-19T20:29:44.329Z,47.53
2022-08-19T20:31:57.434Z,47.09
2022-08-19T20:34:01.875Z,47.33
2022-08-19T20:36:04.933Z,48.07
2022-08-19T20:38:08.748Z,47.43
2022-08-19T20:40:13.199Z,47.65
2022-08-19T20:42:15.475Z,48.81
2022-08-19T20:44:17.495Z,48.55
2022-08-19T20:46:19.557Z,50.07
2022-08-19T20:48:21.603Z,49.38
2022-08-19T20:50:23.621Z,49.51
2022-08-19T20:52:25.630Z,49.95
2022-08-19T20:54:27.976Z,49.55
2022-08-19T20:56:30.911Z,49.56
2022-08-19T20:58:34.914Z,49.65
2022-08-19T21:00:36.993Z,49.90
2022-08-19T21:02:39.052Z,50.64
2022-08-19T21:04:41.256Z,52.18
2022-08-19T21:06:45.319Z,52.02
2022-08-19T21:08:48.905Z,50.83
2022-08-19T21:10:53.389Z,50.58
2022-08-19T21:12:55.602Z,52.77
2022-08-19T21:14:57.608Z,50.64
2022-08-19T21:16:59.779Z,51.56
2022-08-19T21:19:01.800Z,50.57
2022-08-19T21:21:03.877Z,50.84
2022-08-19T21:23:11.785Z,51.97
2022-08-19T21:25:15.362Z,51.50
2022-08-19T21:27:17.379Z,50.92
2022-08-19T21:29:19.427Z,51.26
2022-08-19T21:31:21.748Z,51.50
2022-08-19T21:33:24.849Z,50.90
2022-08-19T21:35:33.880Z,50.90
2022-08-19T21:37:38.751Z,50.91
2022-08-19T21:39:40.826Z,51.21
2022-08-19T21:41:43.693Z,51.25
2022-08-19T21:43:45.944Z,51.56
2022-08-19T21:45:48.311Z,53.24
2022-08-19T21:47:50.856Z,52.87
2022-08-19T21:49:52.935Z,53.16
2022-08-19T21:51:54.952Z,53.06
2022-08-19T21:53:57.540Z,53.01
2022-08-19T21:55:59.636Z,53.58
2022-08-19T21:58:01.826Z,54.94
2022-08-19T22:00:10.212Z,56.35
2022-08-19T22:02:20.489Z,57.11
2022-08-19T22:04:22.968Z,56.45
2022-08-19T22:06:26.898Z,55.96
2022-08-19T22:08:29.880Z,57.26
2022-08-19T22:10:33.500Z,57.90
2022-08-19T22:12:37.416Z,56.56
2022-08-19T22:14:39.737Z,55.76
2022-08-19T22:16:41.749Z,56.40
2022-08-19T22:18:44.468Z,57.17
2022-08-19T22:20:47.847Z,56.21
2022-08-19T22:22:57.134Z,57.70
2022-08-19T22:25:09.760Z,58.30
2022-08-19T22:27:11.744Z,57.88
2022-08-19T22:29:15.684Z,57.78
2022-08-19T22:31:19.259Z,57.79
2022-08-19T22:33:22.713Z,58.01
2022-08-19T22:35:25.495Z,58.85
2022-08-19T22:37:29.281Z,57.41
2022-08-19T22:39:31.288Z,58.23
2022-08-19T22:41:33.777Z,59.77
2022-08-19T22:43:37.557Z,60.53
2022-08-19T22:45:39.693Z,58.86
2022-08-19T22:47:42.184Z,59.33
2022-08-19T22:49:44.633Z,62.14
2022-08-19T22:52:04.934Z,61.58
2022-08-19T22:54:06.966Z,61.57
2022-08-19T22:56:14.981Z,61.81
2022-08-19T22:58:18.285Z,60.60
2022-08-19T23:00:30.352Z,62.74
2022-08-19T23:02:38.388Z,61.04
2022-08-19T23:04:40.466Z,60.04
2022-08-19T23:06:42.894Z,61.07
2022-08-19T23:08:44.981Z,62.44
2022-08-19T23:10:49.310Z,61.07
2022-08-19T23:12:51.338Z,61.47
2022-08-19T23:14:53.708Z,61.51
2022-08-19T23:16:58.898Z,61.43
2022-08-19T23:19:01.840Z,62.42
2022-08-19T23:21:04.461Z,63.68
2022-08-19T23:23:11.294Z,63.74
2022-08-19T23:25:16.535Z,62.59
2022-08-19T23:27:37.398Z,61.68
2022-08-19T23:29:58.254Z,61.72
2022-08-19T23:32:00.251Z,61.61
2022-08-19T23:34:03.053Z,63.09
2022-08-19T23:36:12.021Z,64.19
2022-08-19T23:38:14.121Z,62.14
2022-08-19T23:40:17.284Z,62.34
2022-08-19T23:42:20.599Z,62.85
2022-08-19T23:44:22.745Z,62.38
2022-08-19T23:46:28.131Z,62.37
2022-08-19T23:48:33.591Z,63.30
2022-08-19T23:50:35.896Z,62.79
2022-08-19T23:52:55.377Z,65.52
2022-08-19T23:55:02.085Z,65.01
2022-08-19T23:57:04.312Z,63.26
2022-08-19T23:59:15.822Z,63.63
